sensor_id;sensor_type;location;lat;lon;timestamp;temperature;humidity
11025;DHT22;22890;51.820;8.682;2023-07-13T00:01:49;19.40;99.90
11025;DHT22;22890;51.820;8.682;2023-07-13T00:04:18;19.40;99.90
11025;DHT22;22890;51.820;8.682;2023-07-13T00:06:46;19.40;99.90
11025;DHT22;22890;51.820;8.682;2023-07-13T00:09:15;19.30;99.90
11025;DHT22;22890;51.820;8.682;2023-07-13T00:11:43;19.20;99.90
11025;DHT22;22890;51.820;8.682;2023-07-13T00:14:11;19.20;99.90
11025;DHT22;22890;51.820;8.682;2023-07-13T00:16:39;19.10;99.90
11025;DHT22;22890;51.820;8.682;2023-07-13T00:19:06;19.00;99.90
11025;DHT22;22890;51.820;8.682;2023-07-13T00:21:33;18.90;99.90
11025;DHT22;22890;51.820;8.682;2023-07-13T00:24:01;18.90;99.90
11025;DHT22;22890;51.820;8.682;2023-07-13T00:26:29;18.90;99.90
11025;DHT22;22890;51.820;8.682;2023-07-13T00:28:56;18.80;99.90
11025;DHT22;22890;51.820;8.682;2023-07-13T00:31:23;18.80;99.90
11025;DHT22;22890;51.820;8.682;2023-07-13T00:33:50;18.80;99.90
11025;DHT22;22890;51.820;8.682;2023-07-13T00:36:17;18.70;99.90
11025;DHT22;22890;51.820;8.682;2023-07-13T00:38:43;18.70;99.90
11025;DHT22;22890;51.820;8.682;2023-07-13T00:41:11;18.60;99.90
11025;DHT22;22890;51.820;8.682;2023-07-13T00:43:38;18.60;99.90
11025;DHT22;22890;51.820;8.682;2023-07-13T00:46:18;18.50;99.90
11025;DHT22;22890;51.820;8.682;2023-07-13T00:48:47;18.50;99.90
11025;DHT22;22890;51.820;8.682;2023-07-13T00:51:19;18.50;99.90
11025;DHT22;22890;51.820;8.682;2023-07-13T00:53:47;18.40;99.90
11025;DHT22;22890;51.820;8.682;2023-07-13T00:56:14;18.30;99.90
11025;DHT22;22890;51.820;8.682;2023-07-13T00:58:41;18.20;99.90
11025;DHT22;22890;51.820;8.682;2023-07-13T01:01:08;18.20;99.90
11025;DHT22;22890;51.820;8.682;2023-07-13T01:03:35;18.10;99.90
11025;DHT22;22890;51.820;8.682;2023-07-13T01:06:02;18.00;99.90
11025;DHT22;22890;51.820;8.682;2023-07-13T01:08:29;18.00;99.90
11025;DHT22;22890;51.820;8.682;2023-07-13T01:10:58;17.90;99.90
11025;DHT22;22890;51.820;8.682;2023-07-13T01:13:25;17.80;99.90
11025;DHT22;22890;51.820;8.682;2023-07-13T01:15:55;17.80;99.90
11025;DHT22;22890;51.820;8.682;2023-07-13T01:18:25;17.70;99.90
11025;DHT22;22890;51.820;8.682;2023-07-13T01:21:02;17.70;99.90
11025;DHT22;22890;51.820;8.682;2023-07-13T01:23:31;17.70;99.90
11025;DHT22;22890;51.820;8.682;2023-07-13T01:25:59;17.60;99.90
11025;DHT22;22890;51.820;8.682;2023-07-13T01:28:27;17.60;99.90
11025;DHT22;22890;51.820;8.682;2023-07-13T01:30:56;17.50;99.90
11025;DHT22;22890;51.820;8.682;2023-07-13T01:33:24;17.50;99.90
11025;DHT22;22890;51.820;8.682;2023-07-13T01:35:51;17.50;99.90
11025;DHT22;22890;51.820;8.682;2023-07-13T01:38:20;17.50;99.90
11025;DHT22;22890;51.820;8.682;2023-07-13T01:40:47;17.40;99.90
11025;DHT22;22890;51.820;8.682;2023-07-13T01:43:14;17.80;99.90
11025;DHT22;22890;51.820;8.682;2023-07-13T01:45:41;17.40;99.90
11025;DHT22;22890;51.820;8.682;2023-07-13T01:48:12;17.40;99.90
11025;DHT22;22890;51.820;8.682;2023-07-13T01:50:39;17.40;99.90
11025;DHT22;22890;51.820;8.682;2023-07-13T01:53:07;17.40;99.90
11025;DHT22;22890;51.820;8.682;2023-07-13T01:55:35;17.40;99.90
11025;DHT22;22890;51.820;8.682;2023-07-13T01:58:03;17.40;99.90
11025;DHT22;22890;51.820;8.682;2023-07-13T02:00:30;17.40;99.90
11025;DHT22;22890;51.820;8.682;2023-07-13T02:02:57;17.40;99.90
11025;DHT22;22890;51.820;8.682;2023-07-13T02:05:24;17.40;99.90
11025;DHT22;22890;51.820;8.682;2023-07-13T02:07:51;17.30;99.90
11025;DHT22;22890;51.820;8.682;2023-07-13T02:10:19;17.40;99.90
11025;DHT22;22890;51.820;8.682;2023-07-13T02:12:48;17.30;99.90
11025;DHT22;22890;51.820;8.682;2023-07-13T02:15:16;17.30;99.90
11025;DHT22;22890;51.820;8.682;2023-07-13T02:17:43;17.30;99.90
11025;DHT22;22890;51.820;8.682;2023-07-13T02:20:10;17.30;99.90
11025;DHT22;22890;51.820;8.682;2023-07-13T02:22:37;17.20;99.90
11025;DHT22;22890;51.820;8.682;2023-07-13T02:25:04;17.20;99.90
11025;DHT22;22890;51.820;8.682;2023-07-13T02:27:31;17.10;99.90
11025;DHT22;22890;51.820;8.682;2023-07-13T02:29:58;17.20;99.90
11025;DHT22;22890;51.820;8.682;2023-07-13T02:32:25;17.20;99.90
11025;DHT22;22890;51.820;8.682;2023-07-13T02:34:52;17.20;99.90
11025;DHT22;22890;51.820;8.682;2023-07-13T02:37:19;17.20;99.90
11025;DHT22;22890;51.820;8.682;2023-07-13T02:39:46;17.20;99.90
11025;DHT22;22890;51.820;8.682;2023-07-13T02:42:14;17.10;99.90
11025;DHT22;22890;51.820;8.682;2023-07-13T02:44:43;17.00;99.90
11025;DHT22;22890;51.820;8.682;2023-07-13T02:47:10;16.90;99.90
11025;DHT22;22890;51.820;8.682;2023-07-13T02:49:37;16.90;99.90
11025;DHT22;22890;51.820;8.682;2023-07-13T02:52:04;16.80;99.90
11025;DHT22;22890;51.820;8.682;2023-07-13T02:54:31;16.80;99.90
11025;DHT22;22890;51.820;8.682;2023-07-13T02:56:58;16.80;99.90
11025;DHT22;22890;51.820;8.682;2023-07-13T02:59:25;16.70;99.90
11025;DHT22;22890;51.820;8.682;2023-07-13T03:01:52;16.70;99.90
11025;DHT22;22890;51.820;8.682;2023-07-13T03:04:18;16.60;99.90
11025;DHT22;22890;51.820;8.682;2023-07-13T03:06:46;16.70;99.90
11025;DHT22;22890;51.820;8.682;2023-07-13T03:09:14;16.70;99.90
11025;DHT22;22890;51.820;8.682;2023-07-13T03:11:46;16.60;99.90
11025;DHT22;22890;51.820;8.682;2023-07-13T03:14:24;16.60;99.90
11025;DHT22;22890;51.820;8.682;2023-07-13T03:16:51;16.60;99.90
11025;DHT22;22890;51.820;8.682;2023-07-13T03:19:21;16.60;99.90
11025;DHT22;22890;51.820;8.682;2023-07-13T03:21:50;16.60;99.90
11025;DHT22;22890;51.820;8.682;2023-07-13T03:24:16;16.60;99.90
11025;DHT22;22890;51.820;8.682;2023-07-13T03:26:43;16.60;99.90
11025;DHT22;22890;51.820;8.682;2023-07-13T03:29:10;16.60;99.90
11025;DHT22;22890;51.820;8.682;2023-07-13T03:31:37;16.60;99.90
11025;DHT22;22890;51.820;8.682;2023-07-13T03:34:04;17.30;99.90
11025;DHT22;22890;51.820;8.682;2023-07-13T03:36:32;16.70;99.90
11025;DHT22;22890;51.820;8.682;2023-07-13T03:39:04;16.60;99.90
11025;DHT22;22890;51.820;8.682;2023-07-13T03:41:39;16.60;99.90
11025;DHT22;22890;51.820;8.682;2023-07-13T03:44:06;17.30;99.90
11025;DHT22;22890;51.820;8.682;2023-07-13T03:46:33;16.60;99.90
11025;DHT22;22890;51.820;8.682;2023-07-13T03:49:01;16.60;99.90
11025;DHT22;22890;51.820;8.682;2023-07-13T03:51:28;16.50;99.90
11025;DHT22;22890;51.820;8.682;2023-07-13T03:53:55;16.40;99.90
11025;DHT22;22890;51.820;8.682;2023-07-13T03:56:21;16.40;99.90
11025;DHT22;22890;51.820;8.682;2023-07-13T03:58:50;16.40;99.90
11025;DHT22;22890;51.820;8.682;2023-07-13T04:01:20;16.40;99.90
11025;DHT22;22890;51.820;8.682;2023-07-13T04:03:48;16.30;99.90
11025;DHT22;22890;51.820;8.682;2023-07-13T04:06:19;17.30;99.90
11025;DHT22;22890;51.820;8.682;2023-07-13T04:09:01;16.30;99.90
11025;DHT22;22890;51.820;8.682;2023-07-13T04:11:30;16.30;99.90
11025;DHT22;22890;51.820;8.682;2023-07-13T04:13:59;16.20;99.90
11025;DHT22;22890;51.820;8.682;2023-07-13T04:16:26;16.20;99.90
11025;DHT22;22890;51.820;8.682;2023-07-13T04:18:54;16.20;99.90
11025;DHT22;22890;51.820;8.682;2023-07-13T04:21:23;16.10;99.90
11025;DHT22;22890;51.820;8.682;2023-07-13T04:23:50;17.10;99.90
11025;DHT22;22890;51.820;8.682;2023-07-13T04:26:17;16.50;99.90
11025;DHT22;22890;51.820;8.682;2023-07-13T04:28:45;18.20;99.90
11025;DHT22;22890;51.820;8.682;2023-07-13T04:31:12;16.20;99.90
11025;DHT22;22890;51.820;8.682;2023-07-13T04:33:39;16.30;99.90
11025;DHT22;22890;51.820;8.682;2023-07-13T04:36:06;16.30;99.90
11025;DHT22;22890;51.820;8.682;2023-07-13T04:38:34;16.60;99.90
11025;DHT22;22890;51.820;8.682;2023-07-13T04:41:03;16.50;99.90
11025;DHT22;22890;51.820;8.682;2023-07-13T04:43:31;16.60;99.90
11025;DHT22;22890;51.820;8.682;2023-07-13T04:46:02;16.70;99.90
11025;DHT22;22890;51.820;8.682;2023-07-13T04:48:29;16.80;99.90
11025;DHT22;22890;51.820;8.682;2023-07-13T04:50:57;16.90;99.90
11025;DHT22;22890;51.820;8.682;2023-07-13T04:53:24;17.00;99.90
11025;DHT22;22890;51.820;8.682;2023-07-13T04:55:51;17.10;99.90
11025;DHT22;22890;51.820;8.682;2023-07-13T04:58:18;17.60;99.90
11025;DHT22;22890;51.820;8.682;2023-07-13T05:00:45;17.30;99.90
11025;DHT22;22890;51.820;8.682;2023-07-13T05:03:12;17.40;99.90
11025;DHT22;22890;51.820;8.682;2023-07-13T05:05:39;17.40;99.90
11025;DHT22;22890;51.820;8.682;2023-07-13T05:08:05;17.50;99.90
11025;DHT22;22890;51.820;8.682;2023-07-13T05:10:34;17.50;99.90
11025;DHT22;22890;51.820;8.682;2023-07-13T05:13:01;17.60;99.90
11025;DHT22;22890;51.820;8.682;2023-07-13T05:15:28;17.60;99.90
11025;DHT22;22890;51.820;8.682;2023-07-13T05:17:55;17.60;99.90
11025;DHT22;22890;51.820;8.682;2023-07-13T05:20:21;17.70;99.90
11025;DHT22;22890;51.820;8.682;2023-07-13T05:22:48;17.70;99.90
11025;DHT22;22890;51.820;8.682;2023-07-13T05:25:15;17.90;99.90
11025;DHT22;22890;51.820;8.682;2023-07-13T05:27:42;18.00;99.90
11025;DHT22;22890;51.820;8.682;2023-07-13T05:30:09;18.20;99.90
11025;DHT22;22890;51.820;8.682;2023-07-13T05:32:37;18.40;99.90
11025;DHT22;22890;51.820;8.682;2023-07-13T05:35:06;18.50;99.90
11025;DHT22;22890;51.820;8.682;2023-07-13T05:37:33;18.50;99.90
11025;DHT22;22890;51.820;8.682;2023-07-13T05:40:00;18.50;99.90
11025;DHT22;22890;51.820;8.682;2023-07-13T05:42:26;18.40;99.90
11025;DHT22;22890;51.820;8.682;2023-07-13T05:44:53;18.50;99.90
11025;DHT22;22890;51.820;8.682;2023-07-13T05:47:20;18.40;99.90
11025;DHT22;22890;51.820;8.682;2023-07-13T05:49:47;18.30;99.90
11025;DHT22;22890;51.820;8.682;2023-07-13T05:52:14;18.20;99.90
11025;DHT22;22890;51.820;8.682;2023-07-13T05:54:40;18.20;99.90
11025;DHT22;22890;51.820;8.682;2023-07-13T05:57:07;18.30;99.90
11025;DHT22;22890;51.820;8.682;2023-07-13T05:59:35;18.30;99.90
11025;DHT22;22890;51.820;8.682;2023-07-13T06:02:02;18.30;99.90
11025;DHT22;22890;51.820;8.682;2023-07-13T06:04:29;18.30;99.90
11025;DHT22;22890;51.820;8.682;2023-07-13T06:06:55;18.20;99.90
11025;DHT22;22890;51.820;8.682;2023-07-13T06:09:22;18.10;99.90
11025;DHT22;22890;51.820;8.682;2023-07-13T06:11:49;18.20;99.90
11025;DHT22;22890;51.820;8.682;2023-07-13T06:14:15;18.30;99.90
11025;DHT22;22890;51.820;8.682;2023-07-13T06:16:42;18.40;99.90
11025;DHT22;22890;51.820;8.682;2023-07-13T06:19:09;18.60;99.90
11025;DHT22;22890;51.820;8.682;2023-07-13T06:21:36;18.70;99.90
11025;DHT22;22890;51.820;8.682;2023-07-13T06:24:03;18.80;99.90
11025;DHT22;22890;51.820;8.682;2023-07-13T06:26:30;18.70;99.90
11025;DHT22;22890;51.820;8.682;2023-07-13T06:28:56;16.90;99.90
11025;DHT22;22890;51.820;8.682;2023-07-13T06:31:23;18.50;99.90
11025;DHT22;22890;51.820;8.682;2023-07-13T06:33:50;18.50;99.90
11025;DHT22;22890;51.820;8.682;2023-07-13T06:36:17;18.50;99.90
11025;DHT22;22890;51.820;8.682;2023-07-13T06:38:43;18.40;99.90
11025;DHT22;22890;51.820;8.682;2023-07-13T06:41:10;18.50;99.90
11025;DHT22;22890;51.820;8.682;2023-07-13T06:43:37;18.60;99.90
11025;DHT22;22890;51.820;8.682;2023-07-13T06:46:04;18.70;99.90
11025;DHT22;22890;51.820;8.682;2023-07-13T06:48:31;18.70;99.90
11025;DHT22;22890;51.820;8.682;2023-07-13T06:50:58;19.10;99.90
11025;DHT22;22890;51.820;8.682;2023-07-13T06:53:25;18.90;99.90
11025;DHT22;22890;51.820;8.682;2023-07-13T06:55:52;19.00;99.90
11025;DHT22;22890;51.820;8.682;2023-07-13T06:58:19;19.10;99.90
11025;DHT22;22890;51.820;8.682;2023-07-13T07:00:46;19.20;99.90
11025;DHT22;22890;51.820;8.682;2023-07-13T07:03:16;19.40;99.90
11025;DHT22;22890;51.820;8.682;2023-07-13T07:05:43;19.40;99.90
11025;DHT22;22890;51.820;8.682;2023-07-13T07:08:10;19.30;99.90
11025;DHT22;22890;51.820;8.682;2023-07-13T07:10:37;19.30;99.90
11025;DHT22;22890;51.820;8.682;2023-07-13T07:13:04;19.30;99.90
11025;DHT22;22890;51.820;8.682;2023-07-13T07:15:31;19.30;99.90
11025;DHT22;22890;51.820;8.682;2023-07-13T07:17:58;19.20;99.90
11025;DHT22;22890;51.820;8.682;2023-07-13T07:20:24;19.20;99.90
11025;DHT22;22890;51.820;8.682;2023-07-13T07:22:51;19.30;99.90
11025;DHT22;22890;51.820;8.682;2023-07-13T07:25:18;19.50;99.90
11025;DHT22;22890;51.820;8.682;2023-07-13T07:27:45;19.60;99.90
11025;DHT22;22890;51.820;8.682;2023-07-13T07:30:15;19.60;99.90
11025;DHT22;22890;51.820;8.682;2023-07-13T07:32:45;19.60;99.90
11025;DHT22;22890;51.820;8.682;2023-07-13T07:35:14;19.50;99.90
11025;DHT22;22890;51.820;8.682;2023-07-13T07:37:41;19.60;99.90
11025;DHT22;22890;51.820;8.682;2023-07-13T07:40:11;19.60;99.90
11025;DHT22;22890;51.820;8.682;2023-07-13T07:42:41;19.70;99.90
11025;DHT22;22890;51.820;8.682;2023-07-13T07:45:08;19.70;99.90
11025;DHT22;22890;51.820;8.682;2023-07-13T07:47:34;19.80;99.90
11025;DHT22;22890;51.820;8.682;2023-07-13T07:50:01;19.90;99.90
11025;DHT22;22890;51.820;8.682;2023-07-13T07:52:28;20.00;99.90
11025;DHT22;22890;51.820;8.682;2023-07-13T07:54:55;20.10;99.90
11025;DHT22;22890;51.820;8.682;2023-07-13T07:57:42;20.10;99.90
11025;DHT22;22890;51.820;8.682;2023-07-13T08:00:12;20.10;99.90
11025;DHT22;22890;51.820;8.682;2023-07-13T08:02:41;20.20;99.90
11025;DHT22;22890;51.820;8.682;2023-07-13T08:05:28;20.20;99.90
11025;DHT22;22890;51.820;8.682;2023-07-13T08:07:58;20.10;99.90
11025;DHT22;22890;51.820;8.682;2023-07-13T08:10:25;20.10;99.90
11025;DHT22;22890;51.820;8.682;2023-07-13T08:12:52;20.10;99.90
11025;DHT22;22890;51.820;8.682;2023-07-13T08:15:22;20.10;99.90
11025;DHT22;22890;51.820;8.682;2023-07-13T08:17:49;20.00;99.90
11025;DHT22;22890;51.820;8.682;2023-07-13T08:20:16;20.00;99.90
11025;DHT22;22890;51.820;8.682;2023-07-13T08:22:43;20.20;99.90
11025;DHT22;22890;51.820;8.682;2023-07-13T08:25:09;20.30;99.90
11025;DHT22;22890;51.820;8.682;2023-07-13T08:27:36;20.30;99.90
11025;DHT22;22890;51.820;8.682;2023-07-13T08:30:03;20.30;99.90
11025;DHT22;22890;51.820;8.682;2023-07-13T08:32:32;20.20;99.90
11025;DHT22;22890;51.820;8.682;2023-07-13T08:34:59;20.20;99.90
11025;DHT22;22890;51.820;8.682;2023-07-13T08:37:26;20.30;99.90
11025;DHT22;22890;51.820;8.682;2023-07-13T08:39:52;20.40;99.90
11025;DHT22;22890;51.820;8.682;2023-07-13T08:42:42;20.60;99.90
11025;DHT22;22890;51.820;8.682;2023-07-13T08:45:21;20.50;99.90
11025;DHT22;22890;51.820;8.682;2023-07-13T08:47:53;20.40;99.90
11025;DHT22;22890;51.820;8.682;2023-07-13T08:50:26;21.30;99.90
11025;DHT22;22890;51.820;8.682;2023-07-13T08:52:56;20.60;99.90
11025;DHT22;22890;51.820;8.682;2023-07-13T08:55:30;20.60;99.90
11025;DHT22;22890;51.820;8.682;2023-07-13T08:58:05;20.70;99.90
11025;DHT22;22890;51.820;8.682;2023-07-13T09:03:36;20.70;99.90
11025;DHT22;22890;51.820;8.682;2023-07-13T09:06:03;20.80;99.90
11025;DHT22;22890;51.820;8.682;2023-07-13T09:08:54;20.80;99.90
11025;DHT22;22890;51.820;8.682;2023-07-13T09:16:54;21.00;99.90
11025;DHT22;22890;51.820;8.682;2023-07-13T09:19:27;21.10;99.90
11025;DHT22;22890;51.820;8.682;2023-07-13T09:21:55;21.10;99.90
11025;DHT22;22890;51.820;8.682;2023-07-13T09:24:33;21.20;99.90
11025;DHT22;22890;51.820;8.682;2023-07-13T09:27:14;21.40;99.90
11025;DHT22;22890;51.820;8.682;2023-07-13T09:32:31;21.60;99.90
11025;DHT22;22890;51.820;8.682;2023-07-13T09:34:59;21.70;99.90
11025;DHT22;22890;51.820;8.682;2023-07-13T09:37:31;21.70;99.90
11025;DHT22;22890;51.820;8.682;2023-07-13T09:40:00;21.80;99.90
11025;DHT22;22890;51.820;8.682;2023-07-13T09:42:28;21.80;99.90
11025;DHT22;22890;51.820;8.682;2023-07-13T09:45:00;21.60;99.90
11025;DHT22;22890;51.820;8.682;2023-07-13T09:47:31;21.60;99.90
11025;DHT22;22890;51.820;8.682;2023-07-13T09:50:00;21.70;99.90
11025;DHT22;22890;51.820;8.682;2023-07-13T09:52:46;21.70;99.90
11025;DHT22;22890;51.820;8.682;2023-07-13T09:55:37;21.80;99.90
11025;DHT22;22890;51.820;8.682;2023-07-13T10:00:32;22.00;99.90
11025;DHT22;22890;51.820;8.682;2023-07-13T10:03:17;22.10;99.90
11025;DHT22;22890;51.820;8.682;2023-07-13T10:05:46;22.10;99.90
11025;DHT22;22890;51.820;8.682;2023-07-13T10:08:25;22.20;99.90
11025;DHT22;22890;51.820;8.682;2023-07-13T10:11:08;22.20;99.90
11025;DHT22;22890;51.820;8.682;2023-07-13T10:13:40;22.20;99.90
11025;DHT22;22890;51.820;8.682;2023-07-13T10:16:09;22.00;99.90
11025;DHT22;22890;51.820;8.682;2023-07-13T10:18:55;21.90;99.90
11025;DHT22;22890;51.820;8.682;2023-07-13T10:21:26;22.00;99.90
11025;DHT22;22890;51.820;8.682;2023-07-13T10:24:15;22.00;99.90
11025;DHT22;22890;51.820;8.682;2023-07-13T10:27:03;22.00;99.90
11025;DHT22;22890;51.820;8.682;2023-07-13T10:29:36;22.20;99.90
11025;DHT22;22890;51.820;8.682;2023-07-13T10:32:09;22.20;99.90
11025;DHT22;22890;51.820;8.682;2023-07-13T10:34:39;22.20;99.90
11025;DHT22;22890;51.820;8.682;2023-07-13T10:37:15;22.20;99.90
11025;DHT22;22890;51.820;8.682;2023-07-13T10:39:43;22.30;99.90
11025;DHT22;22890;51.820;8.682;2023-07-13T10:42:14;22.30;99.90
11025;DHT22;22890;51.820;8.682;2023-07-13T10:44:42;22.30;99.90
11025;DHT22;22890;51.820;8.682;2023-07-13T10:47:14;22.30;99.90
11025;DHT22;22890;51.820;8.682;2023-07-13T10:49:42;22.30;99.90
11025;DHT22;22890;51.820;8.682;2023-07-13T10:52:40;22.40;99.90
11025;DHT22;22890;51.820;8.682;2023-07-13T10:55:38;22.40;99.90
11025;DHT22;22890;51.820;8.682;2023-07-13T10:58:34;22.40;99.90
11025;DHT22;22890;51.820;8.682;2023-07-13T11:06:37;22.50;99.90
11025;DHT22;22890;51.820;8.682;2023-07-13T11:09:35;22.60;99.90
11025;DHT22;22890;51.820;8.682;2023-07-13T11:12:48;22.80;99.90
11025;DHT22;22890;51.820;8.682;2023-07-13T11:15:27;23.00;99.90
11025;DHT22;22890;51.820;8.682;2023-07-13T11:17:55;23.10;99.90
11025;DHT22;22890;51.820;8.682;2023-07-13T11:20:37;23.10;99.10
11025;DHT22;22890;51.820;8.682;2023-07-13T11:23:26;23.10;99.50
11025;DHT22;22890;51.820;8.682;2023-07-13T11:25:53;23.10;99.10
11025;DHT22;22890;51.820;8.682;2023-07-13T11:28:25;23.10;99.30
11025;DHT22;22890;51.820;8.682;2023-07-13T11:36:10;23.30;99.30
11025;DHT22;22890;51.820;8.682;2023-07-13T11:38:45;23.40;99.30
11025;DHT22;22890;51.820;8.682;2023-07-13T11:41:23;23.40;98.50
11025;DHT22;22890;51.820;8.682;2023-07-13T11:43:54;23.40;98.90
11025;DHT22;22890;51.820;8.682;2023-07-13T11:46:24;23.40;99.20
11025;DHT22;22890;51.820;8.682;2023-07-13T11:48:53;23.50;98.80
11025;DHT22;22890;51.820;8.682;2023-07-13T11:51:29;23.50;98.30
11025;DHT22;22890;51.820;8.682;2023-07-13T11:54:04;23.50;98.20
11025;DHT22;22890;51.820;8.682;2023-07-13T11:56:31;23.50;98.00
11025;DHT22;22890;51.820;8.682;2023-07-13T11:59:05;23.50;98.40
11025;DHT22;22890;51.820;8.682;2023-07-13T12:01:34;23.50;98.50
11025;DHT22;22890;51.820;8.682;2023-07-13T12:04:03;24.30;99.00
11025;DHT22;22890;51.820;8.682;2023-07-13T12:06:33;23.50;98.50
11025;DHT22;22890;51.820;8.682;2023-07-13T12:09:03;23.60;98.10
11025;DHT22;22890;51.820;8.682;2023-07-13T12:11:30;23.50;98.00
11025;DHT22;22890;51.820;8.682;2023-07-13T12:14:01;23.50;98.30
11025;DHT22;22890;51.820;8.682;2023-07-13T12:16:30;23.50;98.10
11025;DHT22;22890;51.820;8.682;2023-07-13T12:19:00;23.60;97.90
11025;DHT22;22890;51.820;8.682;2023-07-13T12:21:31;23.50;97.90
11025;DHT22;22890;51.820;8.682;2023-07-13T12:23:59;23.50;98.10
11025;DHT22;22890;51.820;8.682;2023-07-13T12:26:30;25.00;98.90
11025;DHT22;22890;51.820;8.682;2023-07-13T12:29:00;23.50;98.10
11025;DHT22;22890;51.820;8.682;2023-07-13T12:31:39;23.50;98.30
11025;DHT22;22890;51.820;8.682;2023-07-13T12:34:12;23.40;98.00
11025;DHT22;22890;51.820;8.682;2023-07-13T12:36:58;23.30;97.70
11025;DHT22;22890;51.820;8.682;2023-07-13T12:39:37;23.30;97.90
11025;DHT22;22890;51.820;8.682;2023-07-13T12:44:57;23.20;96.90
11025;DHT22;22890;51.820;8.682;2023-07-13T12:47:25;23.20;97.30
11025;DHT22;22890;51.820;8.682;2023-07-13T12:49:58;23.20;97.50
11025;DHT22;22890;51.820;8.682;2023-07-13T12:52:33;23.20;97.70
11025;DHT22;22890;51.820;8.682;2023-07-13T12:55:11;23.30;97.90
11025;DHT22;22890;51.820;8.682;2023-07-13T12:57:51;23.40;97.90
11025;DHT22;22890;51.820;8.682;2023-07-13T13:00:33;23.40;98.00
11025;DHT22;22890;51.820;8.682;2023-07-13T13:03:28;23.50;97.50
11025;DHT22;22890;51.820;8.682;2023-07-13T13:06:18;23.50;98.00
11025;DHT22;22890;51.820;8.682;2023-07-13T13:08:50;23.50;98.00
11025;DHT22;22890;51.820;8.682;2023-07-13T13:11:19;23.60;98.20
11025;DHT22;22890;51.820;8.682;2023-07-13T13:13:46;23.70;98.30
11025;DHT22;22890;51.820;8.682;2023-07-13T13:16:20;25.40;98.20
11025;DHT22;22890;51.820;8.682;2023-07-13T13:18:47;23.70;97.80
11025;DHT22;22890;51.820;8.682;2023-07-13T13:21:16;23.80;97.30
11025;DHT22;22890;51.820;8.682;2023-07-13T13:23:43;23.70;97.00
11025;DHT22;22890;51.820;8.682;2023-07-13T13:26:12;23.60;97.10
11025;DHT22;22890;51.820;8.682;2023-07-13T13:28:40;23.60;97.40
11025;DHT22;22890;51.820;8.682;2023-07-13T13:31:08;25.60;98.50
11025;DHT22;22890;51.820;8.682;2023-07-13T13:33:40;23.70;97.30
11025;DHT22;22890;51.820;8.682;2023-07-13T13:36:20;23.70;97.20
11025;DHT22;22890;51.820;8.682;2023-07-13T13:38:49;23.70;96.70
11025;DHT22;22890;51.820;8.682;2023-07-13T13:41:16;23.80;96.70
11025;DHT22;22890;51.820;8.682;2023-07-13T13:43:43;23.80;96.80
11025;DHT22;22890;51.820;8.682;2023-07-13T13:46:18;23.90;96.70
11025;DHT22;22890;51.820;8.682;2023-07-13T13:48:45;24.10;96.50
11025;DHT22;22890;51.820;8.682;2023-07-13T13:51:20;24.10;95.90
11025;DHT22;22890;51.820;8.682;2023-07-13T13:53:48;24.20;95.80
11025;DHT22;22890;51.820;8.682;2023-07-13T13:56:15;24.20;96.30
11025;DHT22;22890;51.820;8.682;2023-07-13T13:58:44;24.80;96.10
11025;DHT22;22890;51.820;8.682;2023-07-13T14:01:19;24.40;96.30
11025;DHT22;22890;51.820;8.682;2023-07-13T14:03:47;24.50;96.70
11025;DHT22;22890;51.820;8.682;2023-07-13T14:06:18;24.70;96.60
11025;DHT22;22890;51.820;8.682;2023-07-13T14:08:45;24.70;95.20
11025;DHT22;22890;51.820;8.682;2023-07-13T14:11:13;24.70;95.20
11025;DHT22;22890;51.820;8.682;2023-07-13T14:13:43;24.70;95.20
11025;DHT22;22890;51.820;8.682;2023-07-13T14:16:16;24.60;94.80
11025;DHT22;22890;51.820;8.682;2023-07-13T14:18:47;24.50;94.80
11025;DHT22;22890;51.820;8.682;2023-07-13T14:21:19;24.50;94.80
11025;DHT22;22890;51.820;8.682;2023-07-13T14:23:47;24.50;94.40
11025;DHT22;22890;51.820;8.682;2023-07-13T14:26:20;24.30;94.70
11025;DHT22;22890;51.820;8.682;2023-07-13T14:28:49;24.20;94.30
11025;DHT22;22890;51.820;8.682;2023-07-13T14:31:17;24.20;94.70
11025;DHT22;22890;51.820;8.682;2023-07-13T14:33:44;24.20;94.70
11025;DHT22;22890;51.820;8.682;2023-07-13T14:36:24;24.20;94.80
11025;DHT22;22890;51.820;8.682;2023-07-13T14:38:52;24.10;94.80
11025;DHT22;22890;51.820;8.682;2023-07-13T14:41:20;24.00;95.00
11025;DHT22;22890;51.820;8.682;2023-07-13T14:43:47;23.90;96.10
11025;DHT22;22890;51.820;8.682;2023-07-13T14:46:30;23.90;97.40
11025;DHT22;22890;51.820;8.682;2023-07-13T14:49:04;23.60;98.00
11025;DHT22;22890;51.820;8.682;2023-07-13T14:51:33;23.40;98.30
11025;DHT22;22890;51.820;8.682;2023-07-13T14:54:05;23.30;98.60
11025;DHT22;22890;51.820;8.682;2023-07-13T14:56:33;23.20;98.90
11025;DHT22;22890;51.820;8.682;2023-07-13T14:59:00;23.00;99.10
11025;DHT22;22890;51.820;8.682;2023-07-13T15:01:27;22.90;99.90
11025;DHT22;22890;51.820;8.682;2023-07-13T15:03:55;22.70;99.90
11025;DHT22;22890;51.820;8.682;2023-07-13T15:06:22;22.40;99.90
11025;DHT22;22890;51.820;8.682;2023-07-13T15:08:48;22.30;99.90
11025;DHT22;22890;51.820;8.682;2023-07-13T15:11:17;22.20;99.90
11025;DHT22;22890;51.820;8.682;2023-07-13T15:13:44;22.10;99.90
11025;DHT22;22890;51.820;8.682;2023-07-13T15:16:22;21.80;99.90
11025;DHT22;22890;51.820;8.682;2023-07-13T15:18:50;21.50;99.90
11025;DHT22;22890;51.820;8.682;2023-07-13T15:21:23;21.50;99.90
11025;DHT22;22890;51.820;8.682;2023-07-13T15:23:51;21.30;99.90
11025;DHT22;22890;51.820;8.682;2023-07-13T15:26:19;21.10;99.90
11025;DHT22;22890;51.820;8.682;2023-07-13T15:28:47;21.00;99.90
11025;DHT22;22890;51.820;8.682;2023-07-13T15:31:18;20.70;99.90
11025;DHT22;22890;51.820;8.682;2023-07-13T15:33:46;20.30;99.90
11025;DHT22;22890;51.820;8.682;2023-07-13T15:36:19;20.10;99.90
11025;DHT22;22890;51.820;8.682;2023-07-13T15:38:47;19.80;99.90
11025;DHT22;22890;51.820;8.682;2023-07-13T15:41:22;19.50;99.90
11025;DHT22;22890;51.820;8.682;2023-07-13T15:43:50;19.30;99.90
11025;DHT22;22890;51.820;8.682;2023-07-13T15:46:22;20.70;99.90
11025;DHT22;22890;51.820;8.682;2023-07-13T15:48:51;19.00;99.90
11025;DHT22;22890;51.820;8.682;2023-07-13T15:51:25;19.00;99.90
11025;DHT22;22890;51.820;8.682;2023-07-13T15:53:58;18.10;99.90
11025;DHT22;22890;51.820;8.682;2023-07-13T15:56:29;20.70;99.90
11025;DHT22;22890;51.820;8.682;2023-07-13T15:58:56;19.10;99.90
11025;DHT22;22890;51.820;8.682;2023-07-13T16:01:24;19.20;99.90
11025;DHT22;22890;51.820;8.682;2023-07-13T16:03:51;19.20;99.90
11025;DHT22;22890;51.820;8.682;2023-07-13T16:06:36;19.20;99.90
11025;DHT22;22890;51.820;8.682;2023-07-13T16:09:07;19.30;99.90
11025;DHT22;22890;51.820;8.682;2023-07-13T16:11:38;19.30;99.90
11025;DHT22;22890;51.820;8.682;2023-07-13T16:14:06;19.30;99.90
11025;DHT22;22890;51.820;8.682;2023-07-13T16:16:34;19.20;99.90